createdAt,value
2023-03-21T00:01:28.751Z,8.25
2023-03-21T00:03:56.900Z,7.20
2023-03-21T00:06:24.967Z,7.88
2023-03-21T00:08:53.413Z,7.80
2023-03-21T00:11:21.620Z,10.63
2023-03-21T00:13:49.860Z,7.18
2023-03-21T00:16:22.716Z,7.13
2023-03-21T00:18:58.371Z,8.73
2023-03-21T00:24:16.422Z,8.65
2023-03-21T00:26:44.380Z,9.93
2023-03-21T00:29:13.465Z,8.45
2023-03-21T00:31:41.404Z,8.30
2023-03-21T00:36:39.708Z,7.93
2023-03-21T00:39:07.709Z,10.70
2023-03-21T00:41:42.612Z,10.85
2023-03-21T00:44:13.427Z,7.78
2023-03-21T00:46:51.281Z,7.95
2023-03-21T00:49:26.561Z,6.07
2023-03-21T00:51:55.363Z,9.95
2023-03-21T00:54:26.036Z,8.13
2023-03-21T00:56:54.037Z,13.60
2023-03-21T00:59:22.009Z,9.88
2023-03-21T01:01:50.033Z,9.57
2023-03-21T01:04:18.114Z,10.23
2023-03-21T01:06:47.842Z,9.30
2023-03-21T01:09:18.749Z,11.88
2023-03-21T01:11:46.838Z,10.35
2023-03-21T01:14:23.804Z,7.68
2023-03-21T01:16:52.925Z,10.63
2023-03-21T01:19:37.663Z,11.30
2023-03-21T01:22:12.245Z,8.13
2023-03-21T01:24:46.850Z,15.38
2023-03-21T01:27:20.789Z,10.70
2023-03-21T01:29:48.705Z,10.32
2023-03-21T01:32:16.667Z,9.90
2023-03-21T01:34:44.544Z,12.63
2023-03-21T01:37:14.396Z,12.60
2023-03-21T01:39:42.302Z,8.73
2023-03-21T01:42:13.781Z,10.68
2023-03-21T01:44:54.981Z,11.70
2023-03-21T01:47:22.948Z,10.98
2023-03-21T01:49:53.610Z,11.80
2023-03-21T01:52:36.568Z,9.00
2023-03-21T01:55:11.882Z,8.82
2023-03-21T01:57:55.180Z,11.43
2023-03-21T02:00:32.949Z,9.83
2023-03-21T02:03:11.478Z,8.88
2023-03-21T02:05:48.663Z,11.10
2023-03-21T02:08:18.180Z,7.72
2023-03-21T02:10:50.560Z,6.90
2023-03-21T02:15:57.912Z,13.25
2023-03-21T02:18:31.117Z,9.40
2023-03-21T02:21:28.755Z,11.70
2023-03-21T02:24:32.366Z,13.40
2023-03-21T02:27:11.755Z,8.80
2023-03-21T02:30:17.425Z,8.88
2023-03-21T02:33:05.965Z,8.32
2023-03-21T02:36:11.969Z,11.05
2023-03-21T02:38:48.878Z,9.25
2023-03-21T02:41:21.260Z,9.82
2023-03-21T02:43:59.419Z,8.43
2023-03-21T02:46:43.955Z,8.20
2023-03-21T02:49:21.627Z,10.13
2023-03-21T02:51:51.627Z,7.65
2023-03-21T02:54:38.351Z,9.50
2023-03-21T02:57:10.875Z,9.25
2023-03-21T02:59:51.778Z,10.60
2023-03-21T03:02:26.026Z,7.20
2023-03-21T03:07:33.694Z,9.07
2023-03-21T03:10:21.352Z,7.25
2023-03-21T03:13:00.101Z,8.05
2023-03-21T03:15:41.852Z,10.57
2023-03-21T03:18:19.018Z,6.33
2023-03-21T03:20:54.381Z,5.72
2023-03-21T03:23:31.055Z,8.50
2023-03-21T03:26:05.704Z,6.45
2023-03-21T03:28:38.141Z,6.22
2023-03-21T03:31:10.154Z,7.20
2023-03-21T03:33:42.420Z,6.88
2023-03-21T03:36:30.455Z,6.57
2023-03-21T03:39:05.379Z,10.82
2023-03-21T03:42:02.848Z,6.65
2023-03-21T03:44:28.423Z,6.25
2023-03-21T03:47:00.952Z,5.13
2023-03-21T03:52:05.384Z,5.18
2023-03-21T03:54:36.781Z,6.43
2023-03-21T03:57:07.518Z,6.38
2023-03-21T03:59:36.976Z,6.53
2023-03-21T04:02:06.721Z,7.05
2023-03-21T04:04:35.112Z,12.05
2023-03-21T04:07:03.686Z,7.13
2023-03-21T04:09:43.714Z,5.45
2023-03-21T04:12:13.917Z,10.15
2023-03-21T04:14:47.186Z,5.47
2023-03-21T04:17:15.750Z,7.30
2023-03-21T04:19:43.766Z,6.72
2023-03-21T04:22:11.883Z,7.22
2023-03-21T04:25:07.931Z,5.88
2023-03-21T04:27:58.360Z,6.55
2023-03-21T04:34:12.782Z,8.57
2023-03-21T04:37:28.229Z,4.65
2023-03-21T04:44:01.973Z,12.20
2023-03-21T05:09:04.065Z,5.50
2023-03-21T05:12:26.985Z,5.18
2023-03-21T05:16:21.266Z,5.22
2023-03-21T05:19:59.037Z,5.80
2023-03-21T05:35:28.992Z,9.10
2023-03-21T05:39:35.888Z,4.93
2023-03-21T05:45:26.142Z,9.07
2023-03-21T05:48:31.924Z,10.25
2023-03-21T05:51:51.828Z,6.88
2023-03-21T05:54:20.910Z,8.60
2023-03-21T05:57:49.362Z,8.63
2023-03-21T06:01:04.118Z,11.40
2023-03-21T06:03:33.892Z,8.05
2023-03-21T06:06:03.464Z,9.43
2023-03-21T06:08:31.761Z,10.05
2023-03-21T06:10:59.721Z,10.95
2023-03-21T06:13:27.739Z,13.63
2023-03-21T06:15:55.663Z,8.82
2023-03-21T06:18:23.630Z,10.00
2023-03-21T06:20:54.341Z,14.27
2023-03-21T06:23:22.389Z,9.35
2023-03-21T06:25:50.410Z,7.45
2023-03-21T06:28:18.982Z,14.70
2023-03-21T06:30:47.061Z,13.10
2023-03-21T06:33:15.453Z,9.50
2023-03-21T06:35:43.602Z,8.88
2023-03-21T06:38:12.972Z,13.57
2023-03-21T06:40:40.970Z,8.00
2023-03-21T06:43:08.975Z,8.98
2023-03-21T06:45:42.395Z,10.55
2023-03-21T06:48:10.585Z,7.00
2023-03-21T06:50:38.798Z,8.60
2023-03-21T06:53:06.928Z,8.63
2023-03-21T06:55:36.736Z,10.25
2023-03-21T06:58:04.853Z,6.55
2023-03-21T07:00:33.946Z,8.52
2023-03-21T07:03:04.469Z,5.55
2023-03-21T07:05:34.029Z,9.82
2023-03-21T07:08:05.036Z,7.85
2023-03-21T07:10:33.381Z,8.73
2023-03-21T07:13:02.877Z,6.88
2023-03-21T07:15:30.856Z,7.75
2023-03-21T07:18:02.078Z,9.23
2023-03-21T07:20:30.012Z,6.68
2023-03-21T07:22:58.142Z,9.43
2023-03-21T07:25:26.224Z,4.68
2023-03-21T07:27:54.236Z,7.53
2023-03-21T07:30:23.969Z,10.73
2023-03-21T07:32:53.390Z,8.40
2023-03-21T07:35:21.659Z,6.47
2023-03-21T07:37:49.752Z,8.38
2023-03-21T07:40:18.193Z,9.20
2023-03-21T07:42:46.422Z,10.13
2023-03-21T07:45:16.591Z,4.43
2023-03-21T07:47:48.694Z,5.68
2023-03-21T07:50:17.197Z,5.90
2023-03-21T07:52:45.306Z,13.32
2023-03-21T07:55:13.443Z,6.50
2023-03-21T07:57:41.732Z,8.50
2023-03-21T08:00:10.979Z,6.20
2023-03-21T08:02:38.866Z,6.10
2023-03-21T08:05:10.559Z,6.43
2023-03-21T08:07:38.657Z,7.23
2023-03-21T08:10:07.814Z,8.60
2023-03-21T08:12:35.853Z,8.57
2023-03-21T08:15:06.839Z,8.15
2023-03-21T08:17:39.849Z,7.57
2023-03-21T08:20:12.759Z,8.18
2023-03-21T08:22:41.547Z,7.55
2023-03-21T08:25:13.212Z,6.25
2023-03-21T08:27:45.569Z,5.47
2023-03-21T08:30:16.573Z,6.15
2023-03-21T08:32:44.601Z,8.48
2023-03-21T08:35:18.669Z,8.48
2023-03-21T08:37:47.060Z,6.72
2023-03-21T08:40:22.240Z,6.20
2023-03-21T08:42:53.064Z,6.60
2023-03-21T08:45:21.244Z,7.03
2023-03-21T08:47:49.289Z,6.70
2023-03-21T08:50:21.124Z,3.90
2023-03-21T08:52:49.621Z,5.13
2023-03-21T08:55:18.978Z,3.67
2023-03-21T08:57:49.838Z,5.30
2023-03-21T09:00:20.870Z,4.80
2023-03-21T09:02:51.819Z,4.95
2023-03-21T09:05:22.796Z,6.20
2023-03-21T09:07:53.014Z,4.22
2023-03-21T09:10:23.238Z,7.88
2023-03-21T09:12:53.390Z,6.10
2023-03-21T09:15:25.134Z,7.18
2023-03-21T09:17:54.640Z,5.63
2023-03-21T09:20:30.738Z,5.40
2023-03-21T09:23:03.197Z,4.45
2023-03-21T09:25:32.666Z,5.75
2023-03-21T09:28:01.073Z,4.22
2023-03-21T09:30:30.150Z,4.82
2023-03-21T09:33:00.699Z,7.55
2023-03-21T09:35:31.298Z,3.50
2023-03-21T09:37:59.548Z,6.50
2023-03-21T09:40:42.178Z,2.70
2023-03-21T09:45:52.545Z,5.25
2023-03-21T09:48:30.290Z,2.83
2023-03-21T09:51:02.771Z,4.20
2023-03-21T09:56:03.928Z,4.20
2023-03-21T09:58:37.277Z,7.80
2023-03-21T10:01:22.501Z,5.35
2023-03-21T10:03:52.007Z,4.75
2023-03-21T10:06:31.542Z,6.85
2023-03-21T10:09:07.384Z,6.10
2023-03-21T10:11:44.279Z,3.50
2023-03-21T10:14:19.846Z,6.55
2023-03-21T10:16:50.539Z,3.03
2023-03-21T10:19:23.404Z,3.85
2023-03-21T10:22:01.789Z,7.50
2023-03-21T10:24:34.377Z,6.15
2023-03-21T10:27:03.845Z,8.73
2023-03-21T10:29:36.876Z,6.82
2023-03-21T10:32:07.442Z,6.45
2023-03-21T10:34:38.965Z,6.80
2023-03-21T10:37:09.952Z,5.55
2023-03-21T10:39:40.853Z,5.95
2023-03-21T10:42:18.989Z,8.98
2023-03-21T10:44:54.519Z,5.75
2023-03-21T10:57:21.674Z,7.40
2023-03-21T10:59:58.191Z,5.80
2023-03-21T11:02:42.598Z,5.80
2023-03-21T11:05:22.557Z,5.55
2023-03-21T11:08:03.219Z,5.40
2023-03-21T11:10:56.529Z,6.75
2023-03-21T11:13:35.254Z,7.10
2023-03-21T11:16:12.058Z,6.93
2023-03-21T11:18:50.782Z,7.72
2023-03-21T11:21:22.220Z,9.32
2023-03-21T11:23:58.984Z,5.10
2023-03-21T11:26:32.893Z,6.05
2023-03-21T11:29:13.300Z,4.18
2023-03-21T11:31:43.197Z,6.25
2023-03-21T11:34:25.027Z,4.90
2023-03-21T11:36:53.261Z,6.38
2023-03-21T11:39:32.538Z,6.22
2023-03-21T11:42:00.623Z,7.13
2023-03-21T11:44:32.800Z,8.00
2023-03-21T11:47:00.770Z,5.45
2023-03-21T11:49:29.555Z,5.07
2023-03-21T11:52:16.120Z,5.95
2023-03-21T11:55:14.874Z,5.05
2023-03-21T11:57:50.229Z,5.20
2023-03-21T12:00:26.034Z,4.85
2023-03-21T12:03:23.761Z,8.93
2023-03-21T12:05:55.342Z,4.85
2023-03-21T12:08:33.962Z,4.37
2023-03-21T12:11:09.514Z,7.57
2023-03-21T12:13:47.767Z,5.68
2023-03-21T12:16:30.674Z,5.90
2023-03-21T12:19:35.203Z,3.13
2023-03-21T12:22:09.023Z,5.30
2023-03-21T12:24:48.104Z,4.18
2023-03-21T12:27:20.792Z,5.00
2023-03-21T12:30:04.892Z,7.35
2023-03-21T12:32:50.839Z,2.55
2023-03-21T12:35:33.849Z,4.97
2023-03-21T12:38:08.943Z,4.78
2023-03-21T12:40:49.034Z,7.63
2023-03-21T12:43:34.684Z,6.38
2023-03-21T12:46:06.852Z,4.68
2023-03-21T12:48:42.290Z,3.42
2023-03-21T12:51:19.312Z,3.58
2023-03-21T12:53:56.108Z,4.30
2023-03-21T12:56:39.130Z,6.15
2023-03-21T12:59:51.458Z,4.65
2023-03-21T13:02:26.452Z,6.05
2023-03-21T13:05:48.002Z,2.75
2023-03-21T13:12:09.719Z,4.07
2023-03-21T13:15:15.344Z,3.60
2023-03-21T13:18:32.923Z,4.32
2023-03-21T13:21:15.211Z,3.55
2023-03-21T13:24:08.566Z,5.03
2023-03-21T13:27:15.749Z,4.70
2023-03-21T13:29:49.643Z,2.85
2023-03-21T13:32:26.205Z,3.85
2023-03-21T13:35:02.137Z,3.15
2023-03-21T13:37:54.456Z,2.65
2023-03-21T13:40:45.203Z,4.13
2023-03-21T13:43:41.064Z,4.07
2023-03-21T13:46:14.860Z,2.40
2023-03-21T13:48:57.829Z,4.95
2023-03-21T13:52:09.320Z,3.40
2023-03-21T13:55:32.499Z,3.00
2023-03-21T13:58:25.847Z,4.70
2023-03-21T14:10:10.372Z,3.97
2023-03-21T14:18:34.943Z,5.50
2023-03-21T15:33:16.946Z,6.70
2023-03-21T15:40:42.201Z,8.52
2023-03-21T15:43:11.430Z,8.52
2023-03-21T15:46:08.807Z,6.60
2023-03-21T15:49:21.928Z,8.15
2023-03-21T15:59:16.245Z,9.55
2023-03-21T16:06:21.392Z,7.18
2023-03-21T16:09:48.893Z,9.55
2023-03-21T16:16:18.762Z,7.38
2023-03-21T16:19:29.617Z,8.38
2023-03-21T16:22:51.009Z,4.85
2023-03-21T16:29:12.314Z,5.65
2023-03-21T16:32:05.815Z,6.15
2023-03-21T16:35:16.782Z,7.47
2023-03-21T16:38:34.068Z,7.88
2023-03-21T16:41:27.407Z,6.57
2023-03-21T16:44:52.088Z,9.80
2023-03-21T16:47:52.370Z,10.38
2023-03-21T16:51:10.544Z,10.60
2023-03-21T16:57:55.740Z,5.35
2023-03-21T17:01:09.504Z,6.57
2023-03-21T17:03:45.775Z,8.85
2023-03-21T17:06:51.824Z,8.90
2023-03-21T17:10:12.088Z,8.57
2023-03-21T17:13:00.398Z,10.10
2023-03-21T17:15:31.530Z,12.15
2023-03-21T17:18:01.154Z,8.52
2023-03-21T17:20:34.757Z,10.02
2023-03-21T17:23:40.247Z,10.18
2023-03-21T17:26:16.593Z,9.45
2023-03-21T17:28:45.968Z,10.82
2023-03-21T17:31:15.420Z,10.70
2023-03-21T17:33:43.697Z,10.10
2023-03-21T17:36:15.809Z,11.30
2023-03-21T17:38:46.741Z,9.68
2023-03-21T17:41:16.428Z,10.77
2023-03-21T17:43:48.878Z,13.20
2023-03-21T17:48:46.652Z,12.57
2023-03-21T17:51:17.584Z,8.25
2023-03-21T17:53:49.164Z,10.35
2023-03-21T17:56:21.709Z,13.07
2023-03-21T18:01:17.458Z,13.57
2023-03-21T18:03:47.533Z,10.80
2023-03-21T18:06:18.471Z,12.27
2023-03-21T18:08:48.924Z,10.90
2023-03-21T18:11:23.258Z,11.23
2023-03-21T18:13:51.560Z,11.38
2023-03-21T18:16:21.727Z,11.95
2023-03-21T18:18:53.870Z,11.95
2023-03-21T18:21:23.015Z,11.93
2023-03-21T18:23:54.665Z,11.80
2023-03-21T18:26:24.409Z,12.80
2023-03-21T18:29:43.868Z,12.05
2023-03-21T18:31:40.322Z,10.25
2023-03-21T18:34:08.634Z,14.73
2023-03-21T18:36:37.007Z,11.65
2023-03-21T18:39:07.156Z,10.35
2023-03-21T18:41:35.545Z,10.80
2023-03-21T18:44:14.285Z,9.77
2023-03-21T18:51:26.681Z,10.90
2023-03-21T18:59:27.214Z,9.00
2023-03-21T19:02:27.512Z,9.77
2023-03-21T19:09:54.792Z,13.10
2023-03-21T19:43:32.806Z,17.42
2023-03-21T19:55:08.650Z,12.13
2023-03-21T19:58:40.727Z,14.32
2023-03-21T20:02:34.410Z,14.48
2023-03-21T20:06:05.957Z,11.32
2023-03-21T20:13:53.300Z,12.90
2023-03-21T20:28:09.399Z,15.02
2023-03-21T20:42:37.441Z,12.57
2023-03-21T20:49:25.698Z,12.32
2023-03-21T20:53:01.166Z,11.27
2023-03-21T20:56:04.248Z,11.18
2023-03-21T21:02:36.952Z,12.20
2023-03-21T21:06:01.272Z,11.18
2023-03-21T21:09:23.686Z,11.77
2023-03-21T21:12:46.184Z,12.75
2023-03-21T21:27:43.100Z,9.80
2023-03-21T21:31:16.488Z,6.40
2023-03-21T21:34:59.573Z,9.60
2023-03-21T21:37:53.913Z,3.67
2023-03-21T21:40:48.720Z,5.45
2023-03-21T21:54:16.023Z,13.65
2023-03-21T22:01:49.191Z,6.72
2023-03-21T22:05:10.473Z,7.53
2023-03-21T22:08:16.134Z,6.25
2023-03-21T22:11:41.616Z,9.40
2023-03-21T22:14:59.705Z,3.10
2023-03-21T22:17:53.100Z,6.45
2023-03-21T22:21:17.326Z,6.88
2023-03-21T22:24:31.378Z,5.40
2023-03-21T22:27:35.429Z,6.82
2023-03-21T22:38:47.380Z,5.68
2023-03-21T22:49:25.358Z,6.53
2023-03-21T22:53:02.970Z,6.03
2023-03-21T22:56:27.999Z,5.93
2023-03-21T22:59:51.539Z,7.78
2023-03-21T23:06:33.146Z,9.80
2023-03-21T23:21:30.692Z,12.70
2023-03-21T23:28:56.983Z,12.60
2023-03-21T23:39:14.507Z,12.45
2023-03-21T23:45:56.704Z,8.65
2023-03-21T23:49:19.198Z,11.23
2023-03-21T23:52:48.636Z,11.05
2023-03-21T23:56:13.771Z,7.93
2023-03-21T23:59:34.921Z,11.38
